Time;durP1;ratioP1;P1;durP2;ratioP2;P2;SDS_P1;SDS_P2;PMS_P1;PMS_P2;Temp;Humidity;BMP_temperature;BMP_pressure;BME280_temperature;BME280_humidity;BME280_pressure;Samples;Min_cycle;Max_cycle;Signal;HPM_P1;HPM_P2
2023/12/19 00:00:49;;;;;;;;;;;;;;;;;;;;;
2023/12/19 00:03:21;;;;;;;69.35;28.42;;;8.00;99.90;;;6.57;100.00;101365.13;6094880;23;20515;-87
2023/12/19 00:06:29;;;;;;;73.03;31.67;;;8.10;99.90;;;6.63;100.00;101364.13;6070572;23;20068;-88
2023/12/19 00:09:07;;;;;;;75.70;31.30;;;8.10;99.90;;;6.62;100.00;101371.13;5956227;24;20012;-88
2023/12/19 00:11:34;;;;;;;70.15;31.25;;;8.10;99.90;;;6.64;100.00;101377.19;5991755;22;20016;-88
2023/12/19 00:14:00;;;;;;;75.75;32.15;;;8.10;99.90;;;6.64;100.00;101369.34;6224179;22;20015;-88
2023/12/19 00:16:40;;;;;;;72.32;31.30;;;;;;;6.71;100.00;101351.75;6249468;22;20086;-88
2023/12/19 00:19:36;;;;;;;65.38;27.38;;;7.00;99.90;;;6.71;100.00;101357.00;6249186;22;20082;-89
2023/12/19 00:22:47;;;;;;;72.32;29.98;;;8.10;99.90;;;6.74;100.00;101370.88;6204702;22;20383;-88
2023/12/19 00:28:43;;;;;;;63.85;27.35;;;;;;;6.75;100.00;101362.13;6146900;23;20061;-89
2023/12/19 00:34:26;;;;;;;76.55;29.42;;;8.20;99.90;;;6.83;100.00;101353.28;6270679;22;20574;-87
2023/12/19 00:37:02;;;;;;;;;;;;;;;;;;;;;
2023/12/19 00:39:31;;;;;;;69.35;28.30;;;8.20;99.90;;;6.83;100.00;101348.03;6251205;22;20528;-88
2023/12/19 00:41:57;;;;;;;71.53;28.13;;;;;;;6.81;100.00;101353.28;6223970;22;20014;-88
2023/12/19 00:44:23;;;;;;;62.55;28.52;;;8.30;99.90;;;6.86;100.00;101347.97;6247454;22;20004;-88
2023/12/19 00:46:49;;;;;;;62.35;26.40;;;;;;;6.86;100.00;101353.19;6249015;22;20018;-89
2023/12/19 00:50:21;;;;;;;;;;;;;;;;;;;;;
2023/12/19 01:00:41;;;;;;;65.18;27.52;;;8.30;99.90;;;6.87;100.00;101339.19;6276564;22;20037;-88
2023/12/19 01:03:43;;;;;;;;;;;;;;;;;;;;;
2023/12/19 01:06:13;;;;;;;52.03;24.10;;;8.30;99.90;;;6.90;100.00;101339.16;6130081;23;20525;-89
2023/12/19 01:08:39;;;;;;;54.60;23.52;;;8.30;99.90;;;6.87;100.00;101340.09;6103850;23;20022;-89
2023/12/19 01:13:40;;;;;;;60.67;27.15;;;8.30;99.90;;;6.92;100.00;101334.75;6272350;22;20024;-86
2023/12/19 01:16:09;;;;;;;58.22;25.10;;;;;;;7.00;100.00;101332.81;6223761;22;20486;-89
2023/12/19 01:22:00;;;;;;;45.10;23.48;;;;;;;6.98;100.00;101330.22;6211262;23;20095;-89
2023/12/19 01:28:19;;;;;;;40.63;20.55;;;;;;;7.00;100.00;101319.72;6093927;23;20010;-89
2023/12/19 01:34:30;;;;;;;39.00;19.10;;;;;;;6.99;100.00;101321.47;6276511;22;20027;-90
2023/12/19 01:37:28;;;;;;;40.95;18.73;;;;;;;7.01;100.00;101310.09;6254406;22;20063;-89
2023/12/19 01:44:18;;;;;;;32.67;15.80;;;;;;;7.03;100.00;101297.84;6097435;23;20026;-90
2023/12/19 01:50:32;;;;;;;;;;;;;;;7.06;100.00;101279.44;5980982;24;20023;-89
2023/12/19 01:53:09;;;;;;;35.42;18.05;;;8.50;99.90;;;7.09;100.00;101285.47;5982798;24;19907;-89
2023/12/19 01:55:53;;;;;;;33.58;18.35;;;;;;;7.12;100.00;101279.28;5960365;24;20020;-91
2023/12/19 01:58:30;;;;;;;30.00;17.10;;;;;;;7.14;100.00;101288.84;5983538;23;20023;-90
2023/12/19 02:01:39;;;;;;;33.15;18.50;;;;;;;7.15;100.00;101290.56;5984576;23;20068;-90
2023/12/19 02:04:37;;;;;;;30.38;16.25;;;8.50;99.90;;;7.16;100.00;101276.56;5879359;24;20013;-91
2023/12/19 02:07:13;;;;;;;;;;;;;;;;;;;;;
2023/12/19 02:09:40;;;;;;;32.35;16.95;;;;;;;7.20;100.00;101295.69;5846432;24;20038;-89
2023/12/19 02:18:31;;;;;;;30.35;16.27;;;8.60;99.90;;;7.25;100.00;101287.72;6127829;23;20022;-89
2023/12/19 02:20:57;;;;;;;33.05;17.50;;;8.70;99.90;;;7.29;100.00;101299.84;6208055;22;20099;-82
2023/12/19 02:23:59;;;;;;;28.85;17.13;;;8.70;99.90;;;7.31;100.00;101308.53;6210172;23;20013;-85
2023/12/19 02:26:28;;;;;;;30.60;16.63;;;8.70;99.90;;;7.26;100.00;101295.56;6182233;23;20363;-84
2023/12/19 02:29:19;;;;;;;32.55;17.42;;;8.70;99.90;;;7.27;100.00;101299.88;6186782;23;20008;-85
2023/12/19 02:31:48;;;;;;;29.88;17.10;;;;;;;7.31;100.00;101295.44;6156742;23;20148;-84
2023/12/19 02:34:17;;;;;;;30.33;17.08;;;8.70;99.90;;;7.32;100.00;101286.66;6182456;23;20051;-83
2023/12/19 02:36:49;;;;;;;33.95;18.23;;;8.70;99.90;;;7.36;100.00;101296.19;6156433;23;20013;-86
2023/12/19 02:39:17;;;;;;;26.45;15.10;;;8.70;99.90;;;7.37;100.00;101303.16;6205805;23;20024;-85
2023/12/19 02:42:01;;;;;;;28.83;14.85;;;8.70;99.90;;;7.43;100.00;101312.63;6205790;23;20437;-85
2023/12/19 02:44:50;;;;;;;26.20;15.50;;;8.80;99.90;;;7.40;100.00;101297.84;6205943;23;20005;-85
2023/12/19 02:47:18;;;;;;;27.63;15.18;;;8.80;99.90;;;7.42;100.00;101298.66;6181915;23;20152;-85
2023/12/19 02:50:07;;;;;;;25.10;14.18;;;;;;;7.44;100.00;101283.75;6180984;23;20360;-86
2023/12/19 02:52:41;;;;;;;23.50;15.20;;;8.80;99.90;;;7.40;100.00;101280.34;6170853;23;20013;-85
2023/12/19 02:55:29;;;;;;;27.23;15.65;;;;;;;7.46;100.00;101281.97;6183917;23;20056;-84
2023/12/19 02:57:58;;;;;;;27.25;14.02;;;8.80;99.90;;;7.46;100.00;101281.97;6183058;23;20005;-84
2023/12/19 03:00:41;;;;;;;19.98;10.93;;;8.80;99.90;;;7.46;100.00;101281.13;6184174;23;20015;-84
2023/12/19 03:03:30;;;;;;;25.15;13.45;;;8.90;99.90;;;7.47;100.00;101273.19;6184372;23;20378;-84
2023/12/19 03:05:58;;;;;;;23.38;11.90;;;8.80;99.90;;;7.45;100.00;101255.78;6150331;23;20012;-84
2023/12/19 03:08:52;;;;;;;26.55;13.13;;;;;;;7.48;100.00;101260.97;6182471;23;20009;-84
2023/12/19 03:11:20;;;;;;;22.08;12.35;;;8.90;99.90;;;7.50;100.00;101252.16;6182057;23;20039;-84
2023/12/19 03:14:09;;;;;;;21.00;13.18;;;8.90;99.90;;;7.51;100.00;101247.78;6156720;23;20009;-83
2023/12/19 03:16:37;;;;;;;21.45;12.85;;;8.90;99.90;;;7.50;100.00;101236.44;6122862;23;20085;-84
2023/12/19 03:19:47;;;;;;;23.00;12.63;;;8.90;99.90;;;7.55;100.00;101237.19;6099593;23;20010;-84
2023/12/19 03:22:27;;;;;;;20.98;12.77;;;8.90;99.90;;;7.56;100.00;101225.81;6115639;23;20013;-84
2023/12/19 03:25:21;;;;;;;21.60;12.15;;;8.90;99.90;;;7.58;100.00;101231.00;6121690;23;20623;-84
2023/12/19 03:27:49;;;;;;;21.33;11.88;;;8.90;99.90;;;7.57;100.00;101235.38;6122415;23;20009;-83
2023/12/19 03:30:17;;;;;;;18.45;10.95;;;8.90;99.90;;;7.56;100.00;101233.69;6123475;23;20010;-85
2023/12/19 03:32:49;;;;;;;20.67;12.73;;;;;;;7.59;100.00;101241.44;6122915;23;20359;-83
2023/12/19 03:35:17;;;;;;;22.65;11.18;;;8.90;99.90;;;7.58;100.00;101238.84;6122305;23;20048;-84
2023/12/19 03:37:53;;;;;;;;;;;;;;;;;;;;;
2023/12/19 03:40:19;;;;;;;;;;;8.90;99.90;;;7.57;100.00;101227.50;6123350;23;20100;-84
2023/12/19 03:42:48;;;;;;;20.73;10.77;;;8.90;99.90;;;7.58;100.00;101228.38;6122449;23;20302;-85
2023/12/19 03:45:40;;;;;;;17.67;10.68;;;9.00;99.90;;;7.58;100.00;101242.34;6122460;23;20130;-83
2023/12/19 03:48:09;;;;;;;21.67;12.52;;;9.00;99.90;;;7.59;100.00;101236.19;6120910;23;20012;-85
2023/12/19 03:50:40;;;;;;;22.48;11.73;;;9.00;99.90;;;7.60;100.00;101229.19;6097131;23;20010;-85
2023/12/19 03:53:09;;;;;;;22.45;12.52;;;;;;;7.63;100.00;101231.75;6123737;23;20156;-83
2023/12/19 03:55:37;;;;;;;22.85;12.80;;;;;;;7.62;100.00;101235.25;6215050;23;20016;-83
2023/12/19 03:58:10;;;;;;;23.25;12.70;;;9.00;99.90;;;7.62;100.00;101237.03;6215265;23;20005;-84
2023/12/19 04:00:39;;;;;;;19.42;11.80;;;;;;;7.63;100.00;101241.38;6164141;23;20021;-84
2023/12/19 04:03:41;;;;;;;;;;;;;;;;;;;;;
2023/12/19 04:06:10;;;;;;;17.92;10.80;;;8.90;99.90;;;7.58;100.00;101231.00;6189028;23;20092;-84
2023/12/19 04:08:38;;;;;;;21.42;12.00;;;9.00;99.90;;;7.51;100.00;101232.91;6215189;23;20024;-83
2023/12/19 04:11:30;;;;;;;23.60;12.60;;;8.90;99.90;;;7.54;100.00;101232.00;6215137;23;20005;-84
2023/12/19 04:13:59;;;;;;;21.55;12.13;;;8.90;99.90;;;7.50;100.00;101233.81;6183336;23;20016;-84
2023/12/19 04:19:49;;;;;;;20.80;11.30;;;8.90;99.90;;;7.43;100.00;101224.41;6197543;23;20017;-84
2023/12/19 04:22:17;;;;;;;24.90;12.15;;;8.90;99.90;;;7.44;100.00;101223.50;6214743;23;20019;-84
2023/12/19 04:24:49;;;;;;;26.05;12.18;;;8.80;99.90;;;7.47;100.00;101226.03;6162113;23;20001;-84
2023/12/19 04:27:18;;;;;;;23.73;13.73;;;;;;;7.44;100.00;101228.75;6187552;23;20058;-85
2023/12/19 04:30:08;;;;;;;26.65;14.35;;;8.80;99.90;;;7.45;100.00;101237.44;6213709;23;20015;-84
2023/12/19 04:32:38;;;;;;;23.67;12.07;;;8.80;99.90;;;7.46;100.00;101226.94;6177188;23;20028;-84
2023/12/19 04:35:27;;;;;;;25.83;12.70;;;8.80;99.90;;;7.43;100.00;101228.78;6187805;23;20072;-84
2023/12/19 04:37:58;;;;;;;25.77;13.55;;;8.80;99.90;;;7.39;100.00;101209.66;6097168;23;20017;-83
2023/12/19 04:40:47;;;;;;;25.92;13.90;;;8.80;99.90;;;7.38;100.00;101211.41;6097151;23;20706;-83
2023/12/19 04:43:16;;;;;;;30.33;14.38;;;;;;;7.40;100.00;101214.00;6082234;23;20149;-84
2023/12/19 04:46:28;;;;;;;27.95;14.80;;;8.80;99.90;;;7.41;100.00;101210.50;6146001;23;20014;-84
2023/12/19 04:49:28;;;;;;;24.13;12.40;;;8.80;99.90;;;7.36;100.00;101213.22;6105750;23;20081;-83
2023/12/19 04:53:08;;;;;;;22.33;9.70;;;8.70;99.90;;;7.33;100.00;101208.06;6119813;23;20445;-84
2023/12/19 04:55:17;;;;;;;24.13;12.60;;;8.70;99.90;;;7.34;100.00;101196.69;6116268;23;20044;-84
2023/12/19 05:00:51;;;;;;;23.90;12.63;;;8.70;99.90;;;7.29;100.00;101195.94;6015293;23;20011;-84
2023/12/19 05:03:17;;;;;;;24.77;12.82;;;8.70;99.90;;;7.31;100.00;101202.00;6034270;23;20453;-83
2023/12/19 05:06:28;;;;;;;26.52;12.63;;;8.70;99.90;;;7.36;100.00;101186.16;6034401;23;20019;-84
2023/12/19 05:09:09;;;;;;;24.70;12.45;;;8.70;99.90;;;7.32;100.00;101185.38;6061719;23;20006;-83
2023/12/19 05:11:50;;;;;;;21.10;11.60;;;8.70;99.90;;;7.33;100.00;101179.22;6091781;23;20109;-83
2023/12/19 05:14:27;;;;;;;25.88;13.55;;;8.70;99.90;;;7.37;100.00;101187.88;6090446;23;20022;-85
2023/12/19 05:17:19;;;;;;;25.40;12.98;;;;;;;7.35;100.00;101181.81;6090811;23;20022;-84
2023/12/19 05:19:50;;;;;;;25.42;12.10;;;8.70;99.90;;;7.36;100.00;101183.53;6081939;23;20042;-82
2023/12/19 05:22:49;;;;;;;26.75;13.77;;;8.70;99.90;;;7.39;100.00;101180.84;6090983;23;20021;-85
2023/12/19 05:25:21;;;;;;;26.23;12.43;;;8.70;99.90;;;7.35;100.00;101168.72;6065663;23;20093;-84
2023/12/19 05:27:49;;;;;;;24.95;12.25;;;8.70;99.90;;;7.39;100.00;101175.59;6091825;23;20098;-85
2023/12/19 05:30:58;;;;;;;27.25;12.05;;;8.70;99.90;;;7.43;100.00;101185.13;6092394;23;20006;-84
2023/12/19 05:33:40;;;;;;;28.95;13.18;;;8.80;99.90;;;7.39;100.00;101197.41;5954030;24;20045;-85
2023/12/19 05:39:02;;;;;;;23.20;12.50;;;8.70;99.90;;;7.37;100.00;101167.78;6031328;23;20026;-84
2023/12/19 05:41:28;;;;;;;21.35;12.10;;;;;;;7.37;100.00;101178.25;6034140;23;20067;-84
2023/12/19 05:44:18;;;;;;;22.83;12.88;;;8.70;99.90;;;7.40;100.00;101188.66;6008945;23;20019;-85
2023/12/19 05:47:01;;;;;;;21.35;11.82;;;8.80;99.90;;;7.43;100.00;101195.59;5949727;24;20113;-84
2023/12/19 05:49:39;;;;;;;25.35;11.70;;;8.70;99.90;;;7.41;100.00;101197.41;6002801;22;20024;-85
2023/12/19 05:52:19;;;;;;;23.42;12.10;;;8.80;99.90;;;7.39;100.00;101196.56;6221128;22;20015;-85
2023/12/19 05:54:47;;;;;;;21.42;12.05;;;8.80;99.90;;;7.45;100.00;101185.94;6222582;22;20466;-83
2023/12/19 05:57:40;;;;;;;23.80;11.45;;;;;;;7.42;100.00;101183.38;6221465;22;20004;-85
2023/12/19 06:00:09;;;;;;;27.88;12.70;;;8.80;99.90;;;7.44;100.00;101193.81;6245804;22;20015;-84
2023/12/19 06:02:40;;;;;;;22.45;12.32;;;8.80;99.90;;;7.44;100.00;101186.81;6245053;22;20057;-84
2023/12/19 06:05:21;;;;;;;21.48;11.18;;;8.80;99.90;;;7.44;100.00;101186.81;6222229;22;20004;-84
2023/12/19 06:07:50;;;;;;;20.70;11.63;;;;;;;7.44;100.00;101176.34;6246237;22;20007;-84
2023/12/19 06:10:29;;;;;;;21.80;12.30;;;;;;;7.48;100.00;101170.13;6273148;22;20011;-85
2023/12/19 06:13:08;;;;;;;25.52;12.13;;;8.80;99.90;;;7.46;100.00;101161.44;6245796;22;20034;-85
2023/12/19 06:15:37;;;;;;;20.48;11.23;;;;;;;7.46;100.00;101179.78;6248688;22;20106;-83
2023/12/19 06:18:09;;;;;;;20.35;10.48;;;8.80;99.90;;;7.43;100.00;101172.00;6245867;22;20414;-85
2023/12/19 06:21:08;;;;;;;21.48;11.98;;;;;;;7.46;100.00;101176.31;6246790;22;20015;-83
2023/12/19 06:23:59;;;;;;;20.02;10.32;;;8.80;99.90;;;7.45;100.00;101175.44;6246031;22;20101;-84
2023/12/19 06:26:28;;;;;;;23.77;12.38;;;;;;;7.45;100.00;101182.44;6222314;22;20011;-85
2023/12/19 06:29:09;;;;;;;23.48;11.60;;;8.80;99.90;;;7.45;100.00;101183.31;6246244;22;20102;-84
2023/12/19 06:31:51;;;;;;;21.10;11.77;;;8.80;99.90;;;7.47;100.00;101184.09;6250326;22;20008;-84
2023/12/19 06:34:29;;;;;;;21.90;12.65;;;8.80;99.90;;;7.50;100.00;101183.19;6245163;22;20046;-84
2023/12/19 06:37:21;;;;;;;23.35;11.77;;;;;;;7.50;100.00;101184.03;6219621;22;20010;-84
2023/12/19 06:39:50;;;;;;;23.80;12.32;;;8.30;99.90;;;7.50;100.00;101184.03;6272705;22;20008;-84
2023/12/19 06:43:15;;;;;;;;;;;;;;;;;;;;;
2023/12/19 06:46:07;;;;;;;20.80;11.70;;;;;;;7.49;100.00;101182.31;6248674;22;20086;-85
2023/12/19 06:48:41;;;;;;;21.45;11.65;;;;;;;7.51;100.00;101192.75;6233850;22;20092;-85
2023/12/19 06:51:42;;;;;;;;;;;;;;;;;;;;;
2023/12/19 06:54:09;;;;;;;18.90;11.23;;;8.90;99.90;;;7.48;100.00;101182.38;6240811;23;20087;-84
2023/12/19 06:56:37;;;;;;;20.67;11.23;;;8.80;99.90;;;7.49;100.00;101163.97;6215040;23;20345;-83
2023/12/19 07:02:00;;;;;;;23.25;11.48;;;8.80;99.90;;;7.48;100.00;101151.78;6225571;22;20432;-84
2023/12/19 07:04:49;;;;;;;25.08;10.95;;;8.80;99.90;;;7.50;100.00;101168.31;6240007;23;20039;-84
2023/12/19 07:07:17;;;;;;;19.90;11.30;;;8.80;99.90;;;7.46;100.00;101164.06;6243605;22;20000;-84
2023/12/19 07:09:51;;;;;;;18.73;10.38;;;8.80;99.90;;;7.46;100.00;101153.56;6241744;23;20007;-84
2023/12/19 07:12:20;;;;;;;24.13;11.07;;;;;;;7.43;100.00;101165.88;6242395;22;20437;-85
2023/12/19 07:14:49;;;;;;;18.27;11.23;;;;;;;7.43;100.00;101165.88;6240122;23;20061;-84
2023/12/19 07:17:52;;;;;;;;;;;;;;;;;;;;;
2023/12/19 07:20:09;;;;;;;20.77;12.50;;;8.80;99.90;;;7.49;100.00;101160.50;6237319;22;20348;-84
2023/12/19 07:22:59;;;;;;;21.00;12.50;;;;;;;7.52;100.00;101165.66;6241476;23;20050;-84
2023/12/19 07:25:28;;;;;;;20.52;11.07;;;8.80;99.90;;;7.51;100.00;101159.53;6125072;23;20009;-84
2023/12/19 07:28:08;;;;;;;20.33;11.50;;;8.80;99.90;;;7.51;100.00;101162.16;6150968;23;20024;-84
2023/12/19 07:30:57;;;;;;;18.33;11.85;;;8.80;99.90;;;7.48;100.00;101150.94;6126194;23;20014;-84
2023/12/19 07:33:37;;;;;;;23.55;11.45;;;8.80;99.90;;;7.48;100.00;101153.53;6086941;23;20006;-84
2023/12/19 07:36:19;;;;;;;19.67;11.43;;;;;;;7.43;100.00;101148.44;6100665;23;20841;-84
2023/12/19 07:38:47;;;;;;;22.25;12.05;;;8.80;99.90;;;7.40;100.00;101151.13;6149947;23;20044;-84
2023/12/19 07:41:23;;;;;;;18.48;11.07;;;8.80;99.90;;;7.39;100.00;101159.88;6125948;23;20436;-83
2023/12/19 07:43:49;;;;;;;21.60;12.80;;;;;;;7.40;100.00;101167.69;6126716;23;20415;-84
2023/12/19 07:46:41;;;;;;;25.05;13.95;;;;;;;7.40;100.00;101166.84;6148960;23;20025;-84
2023/12/19 07:52:01;;;;;;;19.90;11.70;;;;;;;7.41;100.00;101173.81;6273580;22;20026;-84
2023/12/19 07:54:30;;;;;;;20.98;11.48;;;8.80;99.90;;;7.39;100.00;101168.59;6229766;22;20012;-85
2023/12/19 07:57:07;;;;;;;21.05;11.30;;;8.80;99.90;;;7.38;100.00;101159.00;6273119;22;20032;-84
2023/12/19 07:59:46;;;;;;;;;;;;;;;;;;;;;
2023/12/19 08:02:17;;;;;;;16.83;9.52;;;8.70;99.90;;;7.31;100.00;101140.88;6249812;22;20082;-84
2023/12/19 08:04:50;;;;;;;16.75;9.23;;;8.70;99.90;;;7.30;100.00;101149.63;6274747;22;20007;-84
2023/12/19 08:07:19;;;;;;;19.90;12.50;;;;;;;7.35;100.00;101139.91;6248767;22;20004;-83
2023/12/19 08:10:08;;;;;;;18.10;10.75;;;;;;;7.37;100.00;101140.72;6246868;22;20016;-84
2023/12/19 08:12:51;;;;;;;15.70;9.80;;;8.70;99.90;;;7.32;100.00;101147.84;6274326;22;20000;-83
2023/12/19 08:15:20;;;;;;;19.48;11.93;;;8.70;99.90;;;7.35;100.00;101150.38;6248293;22;20008;-84
2023/12/19 08:18:09;;;;;;;17.48;9.82;;;8.70;99.90;;;7.39;100.00;101136.31;6273575;22;20483;-85
2023/12/19 08:20:39;;;;;;;19.88;10.80;;;;;;;7.35;100.00;101121.56;6203982;23;20009;-84
2023/12/19 08:23:27;;;;;;;19.90;10.80;;;8.70;99.90;;;7.36;100.00;101115.41;6179798;23;20388;-84
2023/12/19 08:26:11;;;;;;;21.10;11.52;;;8.70;99.90;;;7.37;100.00;101111.91;6179738;23;20350;-84
2023/12/19 08:28:40;;;;;;;17.17;10.57;;;;;;;7.37;100.00;101101.44;6155010;23;20044;-84
2023/12/19 08:31:29;;;;;;;20.15;11.95;;;8.70;99.90;;;7.38;100.00;101106.59;6179482;23;20087;-84
2023/12/19 08:34:08;;;;;;;16.08;10.15;;;;;;;7.33;100.00;101107.66;6125990;23;20430;-84
2023/12/19 08:36:42;;;;;;;17.40;10.73;;;8.70;99.90;;;7.32;100.00;101116.41;6149348;23;20037;-84
2023/12/19 08:39:37;;;;;;;18.45;11.10;;;8.70;99.90;;;7.32;100.00;101108.53;6123179;23;20425;-84
2023/12/19 08:42:12;;;;;;;20.17;11.52;;;;;;;7.34;100.00;101098.88;6150863;23;20041;-84
2023/12/19 08:44:41;;;;;;;21.80;11.30;;;;;;;7.34;100.00;101098.88;6124819;23;20009;-85
2023/12/19 08:47:37;;;;;;;25.23;12.68;;;;;;;7.34;100.00;101110.25;6150159;23;20043;-84
2023/12/19 08:50:23;;;;;;;;;;;;;;;;;;;;;
2023/12/19 08:52:53;;;;;;;20.25;12.10;;;8.70;99.90;;;7.30;100.00;101099.84;6128148;23;20320;-85
2023/12/19 08:55:30;;;;;;;17.95;10.65;;;8.70;99.90;;;7.30;100.00;101111.22;6125669;23;20020;-84
2023/12/19 09:01:06;;;;;;;;;;;;;;;;;;;;;
2023/12/19 09:03:48;;;;;;;16.88;7.80;;;;;;;7.27;100.00;101107.81;6089724;23;20037;-85
2023/12/19 09:06:40;;;;;;;15.85;9.48;;;8.60;99.90;;;7.25;100.00;101101.75;6066989;23;20014;-84
2023/12/19 09:09:11;;;;;;;13.27;7.97;;;8.60;99.90;;;7.21;100.00;101100.97;6045787;23;20077;-85
2023/12/19 09:11:48;;;;;;;15.85;8.48;;;;;;;7.23;100.00;101098.31;6087307;23;20450;-84
2023/12/19 09:14:41;;;;;;;14.13;8.07;;;8.60;99.90;;;7.19;100.00;101094.91;6124579;23;20474;-85
2023/12/19 09:17:09;;;;;;;12.65;8.18;;;8.60;99.90;;;7.19;100.00;101084.44;6124239;23;20012;-84
2023/12/19 09:20:07;;;;;;;16.98;8.75;;;8.60;99.90;;;7.23;100.00;101090.47;6100238;23;20618;-84
2023/12/19 09:23:11;;;;;;;12.13;7.50;;;8.60;99.90;;;7.21;100.00;101087.03;6095372;23;20099;-84
2023/12/19 09:25:39;;;;;;;14.20;8.02;;;8.60;99.90;;;7.25;100.00;101096.50;6119422;23;20072;-84
2023/12/19 09:28:08;;;;;;;15.95;8.25;;;8.60;99.90;;;7.27;100.00;101094.72;6070947;23;20033;-85
2023/12/19 09:30:53;;;;;;;;;;;;;;;;;;;;;
2023/12/19 09:33:28;;;;;;;12.23;7.22;;;;;;;7.26;100.00;101103.50;6117999;23;20529;-84
2023/12/19 09:36:07;;;;;;;11.52;7.35;;;;;;;7.27;100.00;101099.97;6094796;23;20010;-85
2023/12/19 09:38:48;;;;;;;9.40;6.13;;;;;;;7.19;100.00;101090.56;6118743;23;20009;-84
2023/12/19 09:41:37;;;;;;;9.20;5.90;;;;;;;7.14;100.00;101071.47;6149175;23;20013;-84
2023/12/19 09:44:51;;;;;;;8.98;5.47;;;8.50;99.90;;;7.15;100.00;101070.59;6123914;23;20083;-84
2023/12/19 09:47:28;;;;;;;9.65;6.13;;;;;;;7.13;100.00;101055.81;6088304;23;20087;-85
2023/12/19 09:50:42;;;;;;;9.18;5.28;;;;;;;7.12;100.00;101047.06;6089467;23;20014;-85
2023/12/19 09:53:19;;;;;;;7.78;4.88;;;8.40;99.90;;;7.04;100.00;101041.22;6078486;23;20484;-84
2023/12/19 09:55:51;;;;;;;8.13;5.20;;;;;;;7.01;100.00;101035.19;6091694;23;20090;-85
2023/12/19 09:58:31;;;;;;;9.30;3.92;;;8.40;99.90;;;6.97;100.00;101032.63;6090140;23;20044;-85
2023/12/19 10:01:08;;;;;;;9.23;4.60;;;8.40;99.90;;;6.98;100.00;101020.44;6203425;23;20008;-85
2023/12/19 10:07:20;;;;;;;6.13;3.75;;;8.30;99.90;;;6.91;100.00;101009.25;6149704;23;20353;-85
2023/12/19 10:10:25;;;;;;;;;;;;;;;;;;;;;
2023/12/19 10:12:51;;;;;;;6.10;3.58;;;;;;;6.87;100.00;101025.94;6148937;23;20097;-89
2023/12/19 10:15:20;;;;;;;5.53;3.10;;;;;;;6.87;100.00;101020.72;6150570;23;20013;-86
2023/12/19 10:18:12;;;;;;;6.97;4.15;;;8.30;99.90;;;6.85;100.00;100998.94;6148903;23;20017;-85
2023/12/19 10:21:11;;;;;;;9.98;3.92;;;8.30;99.90;;;6.89;100.00;101010.19;6090827;23;20050;-87
2023/12/19 10:24:39;;;;;;;7.20;4.15;;;8.30;99.90;;;6.87;100.00;101006.75;5925796;24;20016;-87
2023/12/19 10:28:20;;;;;;;8.43;3.65;;;8.20;99.90;;;6.80;100.00;101006.06;5948536;24;20012;-86
2023/12/19 10:31:30;;;;;;;5.53;3.22;;;8.20;99.90;;;6.82;100.00;100992.94;6133707;22;20077;-86
2023/12/19 10:42:22;;;;;;;;;;;;;;;;;;;;;
2023/12/19 10:45:44;;;;;;;8.80;3.40;;;8.20;99.90;;;6.84;100.00;100973.66;6090957;23;20101;-87
2023/12/19 10:48:32;;;;;;;;;;;;;;;;;;;;;
2023/12/19 10:51:51;;;;;;;5.80;3.45;;;8.20;99.90;;;6.82;100.00;100962.38;5986009;23;20421;-87
2023/12/19 10:54:58;;;;;;;4.32;3.10;;;8.20;99.90;;;6.81;100.00;100965.91;6033345;23;20015;-87
2023/12/19 10:58:01;;;;;;;4.28;3.15;;;;;;;6.78;100.00;100960.72;5975552;23;20180;-87
2023/12/19 11:01:39;;;;;;;3.70;2.75;;;8.10;99.90;;;6.77;100.00;100956.41;6098714;22;20026;-86
2023/12/19 11:05:11;;;;;;;4.35;2.97;;;8.10;99.90;;;6.73;100.00;100941.69;6075027;23;20014;-86
2023/12/19 11:11:51;;;;;;;2.67;2.35;;;8.10;99.90;;;6.70;100.00;100919.09;6243101;22;20146;-86
2023/12/19 11:19:50;;;;;;;3.13;2.08;;;8.10;99.90;;;6.71;100.00;100912.09;6034146;23;20367;-87
2023/12/19 11:27:21;;;;;;;2.40;1.83;;;8.10;99.90;;;6.68;100.00;100884.25;5950027;24;20466;-86
2023/12/19 11:30:30;;;;;;;3.00;1.50;;;;;;;6.63;100.00;100883.53;5913757;24;20391;-86
2023/12/19 11:34:29;;;;;;;1.92;1.40;;;8.10;99.90;;;6.62;100.00;100868.72;5911552;24;20020;-86
2023/12/19 12:11:02;;;;;;;0.30;0.30;;;;;;;6.47;100.00;100838.59;4953461;22;30504230;-86
2023/12/19 12:18:12;;;;;;;1.20;0.80;;;;;;;6.53;100.00;100829.75;6250673;23;20019;-84
2023/12/19 12:21:10;;;;;;;1.52;0.90;;;7.90;99.90;;;6.50;100.00;100822.84;6157851;23;20013;-88
2023/12/19 12:24:53;;;;;;;0.90;0.68;;;7.90;99.90;;;6.50;100.00;100812.38;6103403;23;20410;-85
2023/12/19 12:27:30;;;;;;;1.63;0.68;;;;;;;6.53;100.00;100819.28;5905660;24;20020;-85
2023/12/19 12:30:33;;;;;;;1.95;0.60;;;;;;;6.55;100.00;100809.63;6018107;22;20060;-85
2023/12/19 12:34:01;;;;;;;1.10;0.70;;;;;;;6.58;100.00;100812.16;6250279;22;20422;-85
2023/12/19 12:37:39;;;;;;;;;;;;;;;;;;;;;
2023/12/19 12:40:33;;;;;;;;;;;;;;;;;;;;;
2023/12/19 12:43:51;;;;;;;0.82;0.65;;;7.90;99.90;;;6.50;100.00;100786.22;5983276;23;20107;-85
2023/12/19 12:47:05;;;;;;;0.68;0.57;;;7.90;99.90;;;6.53;100.00;100791.34;5964400;23;20579;-84
2023/12/19 12:50:31;;;;;;;3.50;0.50;;;7.90;99.90;;;6.54;100.00;100784.34;5927946;24;20089;-85
2023/12/19 12:56:39;;;;;;;0.80;0.50;;;;;;;6.52;100.00;100778.31;5873139;24;20033;-86
2023/12/19 13:04:41;;;;;;;1.55;0.60;;;7.90;99.90;;;6.50;100.00;100770.53;6246183;22;20004;-84
2023/12/19 13:08:22;;;;;;;0.63;0.50;;;7.90;99.90;;;6.51;100.00;100771.38;6195082;23;20035;-86
2023/12/19 13:12:03;;;;;;;;;;;;;;;;;;;;;
2023/12/19 13:14:40;;;;;;;0.40;0.40;;;7.90;99.90;;;6.49;100.00;100755.72;6279449;22;20038;-85
2023/12/19 13:17:09;;;;;;;1.38;0.50;;;7.90;99.90;;;6.50;100.00;100748.72;6254922;22;20026;-85
2023/12/19 13:19:53;;;;;;;0.77;0.50;;;;;;;6.50;100.00;100748.72;6248846;22;20460;-85
2023/12/19 13:22:29;;;;;;;2.90;0.47;;;7.90;99.90;;;6.51;100.00;100747.84;6249984;23;20078;-83
2023/12/19 13:25:07;;;;;;;;;;;;;;;;;;;;;
2023/12/19 13:28:02;;;;;;;0.43;0.40;;;7.90;99.90;;;6.47;100.00;100730.50;6226145;23;20031;-84
2023/12/19 13:30:32;;;;;;;0.32;0.32;;;;;;;6.47;100.00;100726.13;6228013;23;20134;-85
2023/12/19 13:33:21;;;;;;;1.20;0.40;;;7.80;99.90;;;6.51;100.00;100734.75;6221473;23;20007;-85
2023/12/19 13:35:50;;;;;;;1.00;0.60;;;7.90;99.90;;;6.50;100.00;100728.66;6185444;23;20637;-85
2023/12/19 13:38:53;;;;;;;;;;;;;;;;;;;;;
2023/12/19 13:41:22;;;;;;;1.15;0.40;;;7.90;99.90;;;6.47;100.00;100706.97;6245417;22;20054;-85
2023/12/19 13:43:51;;;;;;;2.08;0.50;;;;;;;6.51;100.00;100703.38;6198096;23;20008;-84
2023/12/19 13:46:59;;;;;;;1.63;0.50;;;;;;;6.51;100.00;100693.75;6221744;23;20034;-84
2023/12/19 13:50:10;;;;;;;0.73;0.50;;;;;;;6.54;100.00;100698.91;6216149;22;20019;-85
2023/12/19 13:56:40;;;;;;;0.57;0.43;;;7.90;99.90;;;6.54;100.00;100690.19;6018455;23;20012;-85
2023/12/19 13:59:37;;;;;;;0.40;0.40;;;7.90;99.90;;;6.58;100.00;100687.41;6006492;23;20015;-85
2023/12/19 14:05:43;;;;;;;;;;;7.90;99.90;;;6.53;100.00;100678.00;5951134;24;20061;-86
2023/12/19 14:08:50;;;;;;;0.28;0.28;;;7.90;99.90;;;6.51;100.00;100682.44;5925716;24;19914;-85
2023/12/19 14:11:51;;;;;;;1.27;0.45;;;;;;;6.54;100.00;100669.25;5923045;24;20065;-86
2023/12/19 14:14:41;;;;;;;4.78;0.50;;;;;;;6.54;100.00;100677.97;5872257;24;20009;-85
2023/12/19 14:17:12;;;;;;;1.83;0.50;;;7.90;99.90;;;6.55;100.00;100681.44;5879321;24;20044;-86
2023/12/19 14:19:51;;;;;;;0.50;0.40;;;7.90;99.90;;;6.55;100.00;100670.97;5954885;22;20043;-84
2023/12/19 14:22:43;;;;;;;0.68;0.50;;;7.90;99.90;;;6.50;100.00;100670.25;6247997;22;20082;-85
2023/12/19 14:29:03;;;;;;;;;;;;;;;;;;;;;
2023/12/19 14:31:33;;;;;;;0.80;0.60;;;7.90;99.90;;;6.54;100.00;100662.28;6036316;23;20091;-85
2023/12/19 14:34:24;;;;;;;;;;;;;;;;;;;;;
2023/12/19 14:37:11;;;;;;;1.55;0.50;;;;;;;6.49;100.00;100661.53;6033235;23;20086;-84
2023/12/19 14:40:21;;;;;;;1.30;0.50;;;7.90;99.90;;;6.45;100.00;100646.00;6035276;23;20063;-86